Time;durP1;ratioP1;P1;durP2;ratioP2;P2;SDS_P1;SDS_P2;PMS_P1;PMS_P2;Temp;Humidity;BMP_temperature;BMP_pressure;BME280_temperature;BME280_humidity;BME280_pressure;Samples;Min_cycle;Max_cycle;Signal;HPM_P1;HPM_P2
2022/11/20 00:00:33;;;;;;;12.43;9.63;;;;;;;;;;4960065;28;20232;-81
2022/11/20 00:03:01;;;;;;;9.90;8.90;;;;;;;;;;4963787;28;20305;-81
2022/11/20 00:05:27;;;;;;;10.37;9.23;;;;;;;;;;4965314;28;20648;-81
2022/11/20 00:07:52;;;;;;;9.70;8.67;;;;;;;;;;4967079;28;20261;-83
2022/11/20 00:10:20;;;;;;;9.90;8.90;;;;;;;;;;4961092;28;20726;-81
2022/11/20 00:12:46;;;;;;;9.83;8.90;;;;;;;;;;4977723;28;20219;-81
2022/11/20 00:15:11;;;;;;;10.10;9.10;;;;;;;;;;4995479;28;20781;-81
2022/11/20 00:17:37;;;;;;;10.53;9.50;;;;;;;;;;4986466;28;20225;-80
2022/11/20 00:20:02;;;;;;;10.20;9.23;;;;;;;;;;4970223;28;20298;-80
2022/11/20 00:22:28;;;;;;;12.33;9.77;;;;;;;;;;4983091;28;20226;-81
2022/11/20 00:25:02;;;;;;;11.97;9.90;;;;;;;;;;4964982;28;20316;-81
2022/11/20 00:27:28;;;;;;;10.97;9.93;;;;;;;;;;5008450;28;20244;-81
2022/11/20 00:29:53;;;;;;;10.73;9.73;;;;;;;;;;4995148;28;20225;-81
2022/11/20 00:32:19;;;;;;;10.13;9.13;;;;;;;;;;4958836;28;20283;-80
2022/11/20 00:34:44;;;;;;;10.77;9.67;;;;;;;;;;4973845;28;20671;-80
2022/11/20 00:37:10;;;;;;;10.43;9.37;;;;;;;;;;4989623;28;20240;-81
2022/11/20 00:39:35;;;;;;;9.90;9.00;;;;;;;;;;4972230;28;20218;-79
2022/11/20 00:42:01;;;;;;;10.70;9.70;;;;;;;;;;4990982;28;20226;-80
2022/11/20 00:44:27;;;;;;;10.20;9.20;;;;;;;;;;4992227;28;20265;-81
2022/11/20 00:46:55;;;;;;;9.70;8.80;;;;;;;;;;4952318;23;20240;-76
2022/11/20 00:49:22;;;;;;;11.80;10.60;;;;;;;;;;4954702;28;20305;-76
2022/11/20 00:51:50;;;;;;;13.80;12.40;;;;;;;;;;4946175;28;20230;-76
2022/11/20 00:54:20;;;;;;;16.90;15.40;;;;;;;;;;4937757;28;20227;-77
2022/11/20 00:56:48;;;;;;;22.70;20.70;;;;;;;;;;4954653;28;20787;-76
2022/11/20 00:59:17;;;;;;;26.57;24.07;;;;;;;;;;4953761;28;20308;-75
2022/11/20 01:01:45;;;;;;;28.33;25.33;;;;;;;;;;4953929;28;20617;-76
2022/11/20 01:04:10;;;;;;;28.93;25.93;;;;;;;;;;4956014;28;20252;-75
2022/11/20 01:06:40;;;;;;;26.93;24.43;;;;;;;;;;4972746;28;20230;-76
2022/11/20 01:09:14;;;;;;;23.70;21.50;;;;;;;;;;4940967;28;20292;-76
2022/11/20 01:11:43;;;;;;;23.90;21.50;;;;;;;;;;4937968;28;20233;-75
2022/11/20 01:14:12;;;;;;;21.17;19.13;;;;;;;;;;4955526;28;20836;-76
2022/11/20 01:16:40;;;;;;;20.30;18.47;;;;;;;;;;4974014;28;20246;-75
2022/11/20 01:19:09;;;;;;;18.57;16.87;;;;;;;;;;4954911;28;20243;-76
2022/11/20 01:21:38;;;;;;;19.00;17.13;;;;;;;;;;4939170;28;20222;-75
2022/11/20 01:24:11;;;;;;;18.27;16.33;;;;;;;;;;4939074;28;20266;-75
2022/11/20 01:26:42;;;;;;;18.07;16.17;;;;;;;;;;4942412;28;20238;-76
2022/11/20 01:29:13;;;;;;;17.77;16.07;;;;;;;;;;4943565;28;20335;-76
2022/11/20 01:31:43;;;;;;;17.23;15.53;;;;;;;;;;4938973;28;20704;-75
2022/11/20 01:34:15;;;;;;;16.20;14.77;;;;;;;;;;4954265;28;20313;-75
2022/11/20 01:36:40;;;;;;;17.50;15.90;;;;;;;;;;4941357;28;20236;-75
2022/11/20 01:39:11;;;;;;;16.07;14.57;;;;;;;;;;4955271;28;20222;-75
2022/11/20 01:44:50;;;;;;;13.87;12.50;;;;;;;;;;4940675;28;20294;-76
2022/11/20 01:47:19;;;;;;;13.30;12.00;;;;;;;;;;4942311;28;20218;-76
2022/11/20 01:49:48;;;;;;;12.70;11.47;;;;;;;;;;4948538;28;20228;-76
2022/11/20 01:52:24;;;;;;;14.20;12.03;;;;;;;;;;4939164;28;20215;-74
2022/11/20 01:54:56;;;;;;;12.40;11.17;;;;;;;;;;4940861;28;20242;-75
2022/11/20 01:57:23;;;;;;;11.73;10.70;;;;;;;;;;4936537;28;20224;-76
2022/11/20 01:59:53;;;;;;;11.47;10.37;;;;;;;;;;4965669;28;20218;-76
2022/11/20 02:02:22;;;;;;;11.77;10.67;;;;;;;;;;4948099;28;20235;-75
2022/11/20 02:04:50;;;;;;;11.87;10.77;;;;;;;;;;4964314;28;20325;-76
2022/11/20 02:07:16;;;;;;;11.50;10.40;;;;;;;;;;4952140;28;20243;-75
2022/11/20 02:09:44;;;;;;;12.20;10.50;;;;;;;;;;4949869;28;20227;-75
2022/11/20 02:13:42;;;;;;;11.63;10.47;;;;;;;;;;4948851;28;20228;-75
2022/11/20 02:14:59;;;;;;;11.50;10.00;;;;;;;;;;4946946;28;20729;-76
2022/11/20 02:17:27;;;;;;;11.27;10.20;;;;;;;;;;4947669;28;20219;-76
2022/11/20 02:19:55;;;;;;;11.90;10.70;;;;;;;;;;4945862;28;20223;-75
2022/11/20 02:22:35;;;;;;;11.60;10.50;;;;;;;;;;4955368;28;20227;-75
2022/11/20 02:25:01;;;;;;;10.50;9.60;;;;;;;;;;4937405;28;20234;-78
2022/11/20 02:27:26;;;;;;;11.23;10.03;;;;;;;;;;4931161;29;20291;-76
2022/11/20 02:30:01;;;;;;;11.07;9.97;;;;;;;;;;4938560;28;20246;-77
2022/11/20 02:32:29;;;;;;;10.20;9.20;;;;;;;;;;4931826;29;20301;-75
2022/11/20 02:34:58;;;;;;;10.67;9.60;;;;;;;;;;4945317;28;20249;-76
2022/11/20 02:37:28;;;;;;;11.00;9.93;;;;;;;;;;4962731;28;20716;-76
2022/11/20 02:39:56;;;;;;;10.97;9.87;;;;;;;;;;4960714;28;20716;-76
2022/11/20 02:42:24;;;;;;;15.57;9.93;;;;;;;;;;4947238;28;20230;-75
2022/11/20 02:44:49;;;;;;;10.90;9.77;;;;;;;;;;4956356;28;20241;-75
2022/11/20 02:47:15;;;;;;;10.50;9.43;;;;;;;;;;4960825;28;20230;-76
2022/11/20 02:49:45;;;;;;;11.13;10.00;;;;;;;;;;4945631;28;20309;-76
2022/11/20 02:52:13;;;;;;;11.07;10.13;;;;;;;;;;4953806;28;20252;-76
2022/11/20 02:54:45;;;;;;;10.23;9.30;;;;;;;;;;4978292;28;20309;-76
2022/11/20 02:57:13;;;;;;;11.50;10.40;;;;;;;;;;4968432;28;20381;-75
2022/11/20 02:59:43;;;;;;;10.10;9.20;;;;;;;;;;4977594;28;20723;-75
2022/11/20 03:02:11;;;;;;;9.73;8.77;;;;;;;;;;4977812;28;20221;-76
2022/11/20 03:04:43;;;;;;;10.93;9.93;;;;;;;;;;4960654;28;20320;-76
2022/11/20 03:07:09;;;;;;;10.67;9.77;;;;;;;;;;4957728;28;20357;-75
2022/11/20 03:09:35;;;;;;;10.70;9.70;;;;;;;;;;4967934;28;20218;-76
2022/11/20 03:12:00;;;;;;;12.10;10.33;;;;;;;;;;4969198;28;20233;-76
2022/11/20 03:14:26;;;;;;;10.47;9.47;;;;;;;;;;4959882;28;20220;-76
2022/11/20 03:16:56;;;;;;;11.50;10.47;;;;;;;;;;4976763;28;20581;-76
2022/11/20 03:19:22;;;;;;;11.90;10.80;;;;;;;;;;4956991;28;20258;-76
2022/11/20 03:21:47;;;;;;;11.93;10.83;;;;;;;;;;4947302;28;20245;-76
2022/11/20 03:24:18;;;;;;;11.37;10.27;;;;;;;;;;4963602;28;20234;-76
2022/11/20 03:26:49;;;;;;;11.30;10.30;;;;;;;;;;4974692;28;20225;-75
2022/11/20 03:29:24;;;;;;;10.97;9.87;;;;;;;;;;4979399;28;20230;-76
2022/11/20 03:31:49;;;;;;;12.27;11.07;;;;;;;;;;4964042;28;20567;-76
2022/11/20 03:34:15;;;;;;;12.83;10.43;;;;;;;;;;4979927;28;20222;-76
2022/11/20 03:36:41;;;;;;;12.43;11.27;;;;;;;;;;4964998;28;20238;-76
2022/11/20 03:39:09;;;;;;;11.93;10.83;;;;;;;;;;4963968;28;20240;-76
2022/11/20 03:41:39;;;;;;;11.97;10.87;;;;;;;;;;4954990;28;20226;-76
2022/11/20 03:44:10;;;;;;;14.50;11.33;;;;;;;;;;4945898;28;20322;-76
2022/11/20 03:46:35;;;;;;;11.97;10.87;;;;;;;;;;4949528;28;20226;-76
2022/11/20 03:49:01;;;;;;;14.17;11.17;;;;;;;;;;4981189;28;20245;-76
2022/11/20 03:51:36;;;;;;;11.63;10.53;;;;;;;;;;4944168;28;20222;-76
2022/11/20 03:54:06;;;;;;;11.93;10.80;;;;;;;;;;4947548;28;20233;-75
2022/11/20 03:56:38;;;;;;;12.80;11.50;;;;;;;;;;4947610;28;20293;-76
2022/11/20 03:59:05;;;;;;;12.33;11.10;;;;;;;;;;4962861;28;20636;-76
2022/11/20 04:01:35;;;;;;;11.90;10.57;;;;;;;;;;4960599;28;20222;-76
2022/11/20 04:04:00;;;;;;;12.47;11.37;;;;;;;;;;4975844;28;20316;-76
2022/11/20 04:06:28;;;;;;;11.57;10.37;;;;;;;;;;4952738;28;21134;-76
2022/11/20 04:08:57;;;;;;;11.70;10.60;;;;;;;;;;4964450;28;20240;-76
2022/11/20 04:11:25;;;;;;;11.67;10.57;;;;;;;;;;4947577;28;20234;-76
2022/11/20 04:13:55;;;;;;;12.00;10.83;;;;;;;;;;4960935;28;20312;-76
2022/11/20 04:16:21;;;;;;;11.03;9.93;;;;;;;;;;4963305;28;20226;-76
2022/11/20 04:18:59;;;;;;;12.17;11.07;;;;;;;;;;4966649;28;20223;-76
2022/11/20 04:21:30;;;;;;;13.10;10.93;;;;;;;;;;4960847;28;20228;-75
2022/11/20 04:24:00;;;;;;;11.63;10.53;;;;;;;;;;4963728;28;20273;-76
2022/11/20 04:26:26;;;;;;;11.87;10.67;;;;;;;;;;4977730;28;20373;-76
2022/11/20 04:28:57;;;;;;;11.70;10.67;;;;;;;;;;4947938;28;20217;-76
2022/11/20 04:31:27;;;;;;;12.37;11.17;;;;;;;;;;4930448;28;20226;-76
2022/11/20 04:33:52;;;;;;;11.90;10.73;;;;;;;;;;4963477;28;20250;-77
2022/11/20 04:36:24;;;;;;;12.80;11.50;;;;;;;;;;4977512;28;20214;-76
2022/11/20 04:38:56;;;;;;;14.70;13.27;;;;;;;;;;4948145;28;20233;-76
2022/11/20 04:41:25;;;;;;;17.77;13.47;;;;;;;;;;4978113;28;20225;-76
2022/11/20 04:43:58;;;;;;;17.50;14.57;;;;;;;;;;4964199;28;20222;-76
2022/11/20 04:46:24;;;;;;;15.60;13.07;;;;;;;;;;4947877;28;20230;-78
2022/11/20 04:48:50;;;;;;;14.37;12.87;;;;;;;;;;4981236;28;20277;-76
2022/11/20 04:51:18;;;;;;;14.70;12.93;;;;;;;;;;4960427;28;20774;-76
2022/11/20 04:53:44;;;;;;;13.23;12.03;;;;;;;;;;4974506;28;20253;-76
2022/11/20 04:56:12;;;;;;;13.23;12.03;;;;;;;;;;4929753;28;20226;-76
2022/11/20 04:58:39;;;;;;;12.87;11.57;;;;;;;;;;4962846;28;20233;-75
2022/11/20 05:01:20;;;;;;;12.17;10.97;;;;;;;;;;4974922;28;20256;-75
2022/11/20 05:03:46;;;;;;;12.97;11.57;;;;;;;;;;4960996;28;20718;-76
2022/11/20 05:06:19;;;;;;;11.63;10.50;;;;;;;;;;4945773;28;20320;-77
2022/11/20 05:08:47;;;;;;;12.20;10.83;;;;;;;;;;4947128;28;20878;-77
2022/11/20 05:11:14;;;;;;;12.27;11.07;;;;;;;;;;4964436;28;20265;-76
2022/11/20 05:13:42;;;;;;;12.00;10.93;;;;;;;;;;4960846;28;20226;-76
2022/11/20 05:16:14;;;;;;;11.50;10.40;;;;;;;;;;4930448;28;20228;-77
2022/11/20 05:18:40;;;;;;;12.80;11.60;;;;;;;;;;4947217;28;20230;-76
2022/11/20 05:21:09;;;;;;;12.80;11.50;;;;;;;;;;4961905;28;20233;-76
2022/11/20 05:23:35;;;;;;;12.67;10.80;;;;;;;;;;4976476;28;20229;-77
2022/11/20 05:26:02;;;;;;;14.27;11.77;;;;;;;;;;4970497;28;20230;-77
2022/11/20 05:28:28;;;;;;;12.97;11.63;;;;;;;;;;4961645;28;20229;-77
2022/11/20 05:30:54;;;;;;;12.27;11.07;;;;;;;;;;4961884;28;20775;-76
2022/11/20 05:33:22;;;;;;;12.10;11.03;;;;;;;;;;4945954;28;20225;-76
2022/11/20 05:35:48;;;;;;;11.43;10.43;;;;;;;;;;4948562;28;20221;-75
2022/11/20 05:38:19;;;;;;;12.20;10.90;;;;;;;;;;4961004;28;20711;-76
2022/11/20 05:40:45;;;;;;;12.60;11.40;;;;;;;;;;4962390;28;20221;-76
2022/11/20 05:43:13;;;;;;;18.37;12.10;;;;;;;;;;4944774;28;20970;-75
2022/11/20 05:45:50;;;;;;;12.67;11.47;;;;;;;;;;4943546;28;20230;-76
2022/11/20 05:48:16;;;;;;;13.20;11.90;;;;;;;;;;4944357;28;20861;-76
2022/11/20 05:50:42;;;;;;;15.93;12.53;;;;;;;;;;4962338;28;20229;-76
2022/11/20 05:53:11;;;;;;;13.50;12.30;;;;;;;;;;4960166;28;21044;-76
2022/11/20 05:55:37;;;;;;;13.57;12.23;;;;;;;;;;4970301;28;20576;-76
2022/11/20 05:58:07;;;;;;;13.87;12.57;;;;;;;;;;4977228;28;20309;-76
2022/11/20 06:00:32;;;;;;;14.50;13.00;;;;;;;;;;4962531;28;20688;-78
2022/11/20 06:03:01;;;;;;;14.13;12.63;;;;;;;;;;4930658;28;20234;-76
2022/11/20 06:05:36;;;;;;;14.40;12.47;;;;;;;;;;4962220;28;20251;-76
2022/11/20 06:08:02;;;;;;;13.97;12.67;;;;;;;;;;4944898;28;20240;-75
2022/11/20 06:10:28;;;;;;;13.93;12.60;;;;;;;;;;4945999;28;20226;-75
2022/11/20 06:12:53;;;;;;;14.63;13.07;;;;;;;;;;4962607;28;20229;-75
2022/11/20 06:15:21;;;;;;;14.33;13.03;;;;;;;;;;4962072;28;20226;-76
2022/11/20 06:17:46;;;;;;;16.43;13.00;;;;;;;;;;4974900;28;20233;-76
2022/11/20 06:20:16;;;;;;;15.27;13.67;;;;;;;;;;4968731;28;20237;-77
2022/11/20 06:22:42;;;;;;;15.43;13.93;;;;;;;;;;4944615;28;20222;-77
2022/11/20 06:25:10;;;;;;;14.20;12.70;;;;;;;;;;4976447;28;20261;-76
2022/11/20 06:27:38;;;;;;;15.33;13.83;;;;;;;;;;4958076;28;20281;-76
2022/11/20 06:30:04;;;;;;;15.30;13.73;;;;;;;;;;4960317;28;20229;-76
2022/11/20 06:32:34;;;;;;;15.57;14.07;;;;;;;;;;4979016;28;20229;-77
2022/11/20 06:35:02;;;;;;;15.17;13.67;;;;;;;;;;4977046;28;20739;-76
2022/11/20 06:37:30;;;;;;;15.07;13.27;;;;;;;;;;4976624;28;20301;-76
2022/11/20 06:39:58;;;;;;;15.83;13.63;;;;;;;;;;4976113;28;20229;-76
2022/11/20 06:42:23;;;;;;;15.47;13.90;;;;;;;;;;4972491;28;20273;-76
2022/11/20 06:44:49;;;;;;;17.13;13.83;;;;;;;;;;4946809;28;20245;-76
2022/11/20 06:47:14;;;;;;;16.17;13.47;;;;;;;;;;4960608;28;20248;-77
2022/11/20 06:49:42;;;;;;;15.03;13.33;;;;;;;;;;4979483;28;20580;-77
2022/11/20 06:52:10;;;;;;;15.20;13.63;;;;;;;;;;4959798;28;20230;-77
2022/11/20 06:54:35;;;;;;;15.27;13.77;;;;;;;;;;4943687;28;20292;-77
2022/11/20 06:57:01;;;;;;;18.27;14.27;;;;;;;;;;4933684;28;20230;-77
2022/11/20 06:59:29;;;;;;;15.80;13.57;;;;;;;;;;4975007;28;20276;-76
2022/11/20 07:01:54;;;;;;;15.60;13.83;;;;;;;;;;4995711;28;20222;-77
2022/11/20 07:04:22;;;;;;;15.13;13.53;;;;;;;;;;4967837;28;20222;-77
2022/11/20 07:06:48;;;;;;;15.00;13.43;;;;;;;;;;4978143;28;20244;-80
2022/11/20 07:09:18;;;;;;;14.00;12.30;;;;;;;;;;4948034;28;20304;-77
2022/11/20 07:11:46;;;;;;;14.80;13.40;;;;;;;;;;4973128;28;20234;-78
2022/11/20 07:14:14;;;;;;;16.73;14.73;;;;;;;;;;4972028;28;20257;-77
2022/11/20 07:16:39;;;;;;;14.90;13.40;;;;;;;;;;4981576;28;20876;-78
2022/11/20 07:19:05;;;;;;;14.80;13.37;;;;;;;;;;4949798;28;20230;-76
2022/11/20 07:21:33;;;;;;;15.33;13.70;;;;;;;;;;4947645;28;20230;-76
2022/11/20 07:24:01;;;;;;;13.70;12.30;;;;;;;;;;4945206;28;20717;-76
2022/11/20 07:26:26;;;;;;;14.57;13.17;;;;;;;;;;4934150;28;20229;-77
2022/11/20 07:28:52;;;;;;;14.20;12.80;;;;;;;;;;4964859;23;20455;-82
2022/11/20 07:31:20;;;;;;;15.50;13.90;;;;;;;;;;4978170;28;20218;-82
2022/11/20 07:33:46;;;;;;;13.57;12.27;;;;;;;;;;4975919;28;20709;-82
2022/11/20 07:36:16;;;;;;;13.20;11.90;;;;;;;;;;4970122;28;20709;-82
2022/11/20 07:38:46;;;;;;;14.27;12.70;;;;;;;;;;4953931;28;20227;-82
2022/11/20 07:41:12;;;;;;;15.67;14.07;;;;;;;;;;4935556;28;20223;-81
2022/11/20 07:43:39;;;;;;;15.40;13.90;;;;;;;;;;4952848;28;20739;-80
2022/11/20 07:46:12;;;;;;;14.57;13.07;;;;;;;;;;4955266;28;20231;-82
2022/11/20 07:48:47;;;;;;;15.17;13.77;;;;;;;;;;4946166;28;20287;-81
2022/11/20 07:51:15;;;;;;;14.53;13.13;;;;;;;;;;4954116;28;20242;-81
2022/11/20 07:53:44;;;;;;;15.23;13.73;;;;;;;;;;4943295;28;20231;-81
2022/11/20 07:56:09;;;;;;;13.70;12.40;;;;;;;;;;4946854;28;20232;-82
2022/11/20 07:58:37;;;;;;;13.40;12.10;;;;;;;;;;4944339;29;20222;-80
2022/11/20 08:01:04;;;;;;;15.50;13.90;;;;;;;;;;4939380;28;20224;-80
2022/11/20 08:03:30;;;;;;;18.90;13.23;;;;;;;;;;4965443;28;20242;-81
2022/11/20 08:05:59;;;;;;;15.03;13.53;;;;;;;;;;4949718;28;20232;-81
2022/11/20 08:08:24;;;;;;;19.27;12.37;;;;;;;;;;4945619;28;20227;-80
2022/11/20 08:10:50;;;;;;;14.80;13.23;;;;;;;;;;4937745;28;20227;-78
2022/11/20 08:16:04;;;;;;;13.37;12.07;;;;;;;;;;4945027;28;20297;-80
2022/11/20 08:18:30;;;;;;;14.43;13.00;;;;;;;;;;4951457;29;20363;-80
2022/11/20 08:20:55;;;;;;;13.93;12.57;;;;;;;;;;4937865;28;20227;-79
2022/11/20 08:23:22;;;;;;;13.53;12.23;;;;;;;;;;4966322;28;20231;-80
2022/11/20 08:25:49;;;;;;;15.80;13.53;;;;;;;;;;4957266;28;20371;-80
2022/11/20 08:28:15;;;;;;;15.37;13.83;;;;;;;;;;4935502;28;20271;-80
2022/11/20 08:30:42;;;;;;;14.47;12.87;;;;;;;;;;4941674;28;20227;-79
2022/11/20 08:33:11;;;;;;;15.03;13.53;;;;;;;;;;4948174;28;20235;-81
2022/11/20 08:35:37;;;;;;;15.83;14.37;;;;;;;;;;4945541;28;20263;-79
2022/11/20 08:38:05;;;;;;;14.93;13.43;;;;;;;;;;4947759;28;20247;-79
2022/11/20 08:40:34;;;;;;;13.07;11.93;;;;;;;;;;4964379;28;20287;-79
2022/11/20 08:42:59;;;;;;;13.03;11.73;;;;;;;;;;4961401;28;20234;-79
2022/11/20 08:45:27;;;;;;;13.50;12.20;;;;;;;;;;4955415;28;20802;-82
2022/11/20 08:47:53;;;;;;;12.63;11.40;;;;;;;;;;4934210;29;20220;-82
2022/11/20 08:50:23;;;;;;;13.53;12.13;;;;;;;;;;4972372;28;20714;-82
2022/11/20 08:52:55;;;;;;;14.03;12.37;;;;;;;;;;4942669;28;20219;-82
2022/11/20 08:55:23;;;;;;;12.90;11.73;;;;;;;;;;4941624;28;20224;-83
2022/11/20 08:57:55;;;;;;;14.20;11.87;;;;;;;;;;4929976;29;20243;-83
2022/11/20 09:00:21;;;;;;;12.90;11.70;;;;;;;;;;4928460;28;20228;-82
2022/11/20 09:02:49;;;;;;;13.43;11.80;;;;;;;;;;4948051;28;20250;-84
2022/11/20 09:05:27;;;;;;;12.07;10.97;;;;;;;;;;4948591;28;20360;-81
2022/11/20 09:07:57;;;;;;;12.77;11.57;;;;;;;;;;4945012;29;20235;-81
2022/11/20 09:10:22;;;;;;;13.17;11.93;;;;;;;;;;4922470;28;20247;-80
2022/11/20 09:12:51;;;;;;;12.53;11.33;;;;;;;;;;4937085;28;20231;-81
2022/11/20 09:15:17;;;;;;;11.90;10.77;;;;;;;;;;4941607;28;20586;-79
2022/11/20 09:18:01;;;;;;;12.40;11.10;;;;;;;;;;4951879;28;20239;-80
2022/11/20 09:20:32;;;;;;;11.43;10.33;;;;;;;;;;4951714;28;20238;-81
2022/11/20 09:22:58;;;;;;;11.63;10.07;;;;;;;;;;4924340;28;20231;-81
2022/11/20 09:25:30;;;;;;;11.47;10.40;;;;;;;;;;4951055;28;20611;-81
2022/11/20 09:27:58;;;;;;;10.70;9.70;;;;;;;;;;4931240;28;20215;-80
2022/11/20 09:30:24;;;;;;;10.90;9.80;;;;;;;;;;4931524;28;20220;-81
2022/11/20 09:33:00;;;;;;;11.23;10.13;;;;;;;;;;4921949;29;20709;-82
2022/11/20 09:35:43;;;;;;;11.47;10.27;;;;;;;;;;4937353;28;20278;-80
2022/11/20 09:38:11;;;;;;;10.67;9.47;;;;;;;;;;4920454;28;20301;-80
2022/11/20 09:40:40;;;;;;;10.20;9.23;;;;;;;;;;4928438;28;20302;-81
2022/11/20 09:43:27;;;;;;;10.00;9.03;;;;;;;;;;4961633;28;20349;-80
2022/11/20 09:46:38;;;;;;;10.63;9.33;;;;;;;;;;4967341;28;20680;-80
2022/11/20 09:49:32;;;;;;;10.17;9.23;;;;;;;;;;4949204;28;20258;-80
2022/11/20 09:52:13;;;;;;;9.60;8.73;;;;;;;;;;4926652;29;20386;-81
2022/11/20 09:54:39;;;;;;;10.50;9.50;;;;;;;;;;4931395;29;20227;-82
2022/11/20 09:57:10;;;;;;;10.43;9.47;;;;;;;;;;4947149;28;20235;-81
2022/11/20 09:59:42;;;;;;;11.03;10.00;;;;;;;;;;4938825;28;20220;-81
2022/11/20 10:02:35;;;;;;;11.10;10.00;;;;;;;;;;4923508;28;20227;-80
2022/11/20 10:05:06;;;;;;;10.07;9.17;;;;;;;;;;4943526;28;20260;-80
2022/11/20 10:07:43;;;;;;;9.20;8.40;;;;;;;;;;4929918;29;20238;-81
2022/11/20 10:10:40;;;;;;;10.07;8.97;;;;;;;;;;4949264;28;20227;-79
2022/11/20 10:13:24;;;;;;;9.77;8.77;;;;;;;;;;4926276;28;20246;-81
2022/11/20 10:16:14;;;;;;;9.90;8.90;;;;;;;;;;4955214;28;20235;-78
2022/11/20 10:18:42;;;;;;;9.20;8.30;;;;;;;;;;4950386;28;20303;-79
2022/11/20 10:21:11;;;;;;;11.73;8.90;;;;;;;;;;4928635;28;20223;-80
2022/11/20 10:23:46;;;;;;;9.63;8.73;;;;;;;;;;4966670;28;20230;-81
2022/11/20 10:26:12;;;;;;;9.67;8.80;;;;;;;;;;4949857;28;20230;-82
2022/11/20 10:28:53;;;;;;;9.10;8.20;;;;;;;;;;4934952;28;20707;-81
2022/11/20 10:31:30;;;;;;;9.17;8.27;;;;;;;;;;4947802;28;20605;-81
2022/11/20 10:33:59;;;;;;;13.63;11.27;;;;;;;;;;4939690;28;20219;-81
2022/11/20 10:36:27;;;;;;;9.93;8.93;;;;;;;;;;4949055;28;20223;-80
2022/11/20 10:39:21;;;;;;;9.60;8.70;;;;;;;;;;4971273;28;20231;-83
2022/11/20 10:42:13;;;;;;;;;;;;;;;;;;;;;
2022/11/20 10:45:05;;;;;;;9.40;8.50;;;;;;;;;;4937829;28;20665;-81
2022/11/20 10:47:41;;;;;;;8.57;7.77;;;;;;;;;;4932227;28;20313;-81
2022/11/20 10:50:27;;;;;;;10.10;9.20;;;;;;;;;;4954334;28;20258;-80
2022/11/20 10:53:19;;;;;;;9.33;8.53;;;;;;;;;;4940730;29;20228;-80
2022/11/20 10:55:58;;;;;;;10.37;9.40;;;;;;;;;;4923724;29;20235;-80
2022/11/20 10:58:33;;;;;;;14.30;10.53;;;;;;;;;;4963682;28;20220;-79
2022/11/20 11:01:26;;;;;;;11.37;10.17;;;;;;;;;;4949159;28;20704;-81
2022/11/20 11:03:55;;;;;;;10.10;9.10;;;;;;;;;;4937663;29;20239;-81
2022/11/20 11:06:43;;;;;;;10.00;9.10;;;;;;;;;;4939274;28;20230;-81
2022/11/20 11:09:37;;;;;;;10.60;8.87;;;;;;;;;;4961900;28;20227;-80
2022/11/20 11:12:06;;;;;;;10.60;9.50;;;;;;;;;;4950870;28;20897;-80
2022/11/20 11:14:50;;;;;;;11.23;9.70;;;;;;;;;;4936351;28;20236;-79
2022/11/20 11:18:03;;;;;;;10.20;9.13;;;;;;;;;;4953063;28;20283;-81
2022/11/20 11:20:28;;;;;;;10.53;9.47;;;;;;;;;;4959313;28;20250;-79
2022/11/20 11:22:55;;;;;;;12.77;10.73;;;;;;;;;;4953782;29;20223;-80
2022/11/20 11:25:26;;;;;;;10.30;9.40;;;;;;;;;;4960762;28;20803;-82
2022/11/20 11:27:52;;;;;;;12.90;11.70;;;;;;;;;;4975281;28;20223;-83
2022/11/20 11:30:19;;;;;;;9.97;9.07;;;;;;;;;;4938459;28;20222;-81
2022/11/20 11:32:45;;;;;;;9.33;8.40;;;;;;;;;;4958312;28;20306;-80
2022/11/20 11:35:27;;;;;;;10.33;9.43;;;;;;;;;;4937217;28;20291;-84
2022/11/20 11:38:12;;;;;;;10.27;9.20;;;;;;;;;;4949514;28;20228;-82
2022/11/20 11:40:40;;;;;;;9.83;8.83;;;;;;;;;;4919302;29;20224;-83
2022/11/20 11:46:06;;;;;;;10.20;9.20;;;;;;;;;;4961545;28;20250;-83
2022/11/20 11:48:33;;;;;;;9.57;8.67;;;;;;;;;;4929290;28;20224;-82
2022/11/20 11:50:59;;;;;;;15.57;14.13;;;;;;;;;;4943942;28;20227;-82
2022/11/20 11:53:25;;;;;;;14.60;13.13;;;;;;;;;;4931866;29;20224;-79
2022/11/20 11:56:08;;;;;;;12.23;10.30;;;;;;;;;;4961399;28;20254;-79
2022/11/20 11:58:41;;;;;;;12.10;10.90;;;;;;;;;;4954649;28;20221;-79
2022/11/20 12:01:07;;;;;;;13.47;12.17;;;;;;;;;;4962785;28;20794;-78
2022/11/20 12:03:42;;;;;;;8.60;7.70;;;;;;;;;;4956109;28;20310;-78
2022/11/20 12:06:13;;;;;;;8.63;7.83;;;;;;;;;;4954088;28;20241;-78
2022/11/20 12:13:02;;;;;;;9.17;8.27;;;;;;;;;;4895748;29;20272;-80
2022/11/20 12:15:39;;;;;;;10.77;9.40;;;;;;;;;;4851217;29;20252;-79
2022/11/20 12:18:09;;;;;;;9.93;9.03;;;;;;;;;;4886316;29;20721;-81
2022/11/20 12:20:40;;;;;;;9.43;8.63;;;;;;;;;;4900059;29;20687;-81
2022/11/20 12:23:17;;;;;;;8.90;8.10;;;;;;;;;;4874301;29;20233;-82
2022/11/20 12:25:44;;;;;;;7.87;7.20;;;;;;;;;;4888667;29;20235;-82
2022/11/20 12:28:09;;;;;;;6.17;5.57;;;;;;;;;;4933332;28;20298;-82
2022/11/20 12:31:12;;;;;;;8.83;8.03;;;;;;;;;;4973032;28;20227;-79
2022/11/20 12:33:48;;;;;;;5.60;5.10;;;;;;;;;;4902947;29;20733;-81
2022/11/20 12:36:32;;;;;;;5.90;5.40;;;;;;;;;;4934946;28;20231;-82
2022/11/20 12:39:57;;;;;;;5.77;5.37;;;;;;;;;;4971287;28;20219;-82
2022/11/20 12:45:24;;;;;;;7.00;6.40;;;;;;;;;;4974779;28;20314;-81
2022/11/20 12:47:56;;;;;;;6.60;6.00;;;;;;;;;;4953599;28;20283;-81
2022/11/20 12:50:46;;;;;;;6.57;5.97;;;;;;;;;;4939668;28;20223;-80
2022/11/20 12:53:35;;;;;;;8.67;7.97;;;;;;;;;;4945142;28;20223;-80
2022/11/20 12:56:21;;;;;;;7.13;6.53;;;;;;;;;;4924821;29;20633;-78
2022/11/20 12:59:16;;;;;;;6.00;5.40;;;;;;;;;;4953988;28;20227;-81
2022/11/20 13:01:52;;;;;;;6.73;5.57;;;;;;;;;;4969433;28;20239;-80
2022/11/20 13:04:35;;;;;;;6.80;6.10;;;;;;;;;;4950783;28;20226;-81
2022/11/20 13:07:12;;;;;;;5.80;5.20;;;;;;;;;;4953565;28;20787;-79
2022/11/20 13:09:44;;;;;;;6.13;5.53;;;;;;;;;;4916865;29;20226;-80
2022/11/20 13:12:30;;;;;;;5.50;5.00;;;;;;;;;;4972542;28;20243;-80
2022/11/20 13:15:16;;;;;;;7.23;6.60;;;;;;;;;;4970430;28;20231;-81
2022/11/20 13:18:03;;;;;;;8.07;7.37;;;;;;;;;;4928118;29;20720;-81
2022/11/20 13:20:29;;;;;;;11.60;10.40;;;;;;;;;;4926522;29;20611;-79
2022/11/20 13:22:58;;;;;;;12.97;11.60;;;;;;;;;;4928372;29;20223;-79
2022/11/20 13:25:28;;;;;;;12.93;11.80;;;;;;;;;;4969546;28;20243;-79
2022/11/20 13:27:55;;;;;;;12.37;10.73;;;;;;;;;;4934381;28;20236;-79
2022/11/20 13:30:23;;;;;;;11.03;9.93;;;;;;;;;;4946460;28;20231;-79
2022/11/20 13:32:56;;;;;;;10.73;9.73;;;;;;;;;;4935788;29;20295;-80
2022/11/20 13:35:29;;;;;;;11.10;10.10;;;;;;;;;;4935687;28;20225;-80
2022/11/20 13:38:11;;;;;;;10.93;9.90;;;;;;;;;;4895522;29;20235;-79
2022/11/20 13:40:39;;;;;;;11.00;10.00;;;;;;;;;;4937658;29;20316;-78
2022/11/20 13:43:18;;;;;;;11.77;10.63;;;;;;;;;;4940956;28;20228;-79
2022/11/20 13:45:54;;;;;;;13.13;10.23;;;;;;;;;;4956165;28;20242;-83
2022/11/20 13:48:21;;;;;;;10.97;9.93;;;;;;;;;;4940544;28;20229;-82
2022/11/20 13:51:09;;;;;;;10.67;9.57;;;;;;;;;;4956845;28;20234;-83
2022/11/20 13:54:23;;;;;;;9.37;8.47;;;;;;;;;;4972687;28;20223;-82
2022/11/20 13:57:29;;;;;;;11.37;10.17;;;;;;;;;;4931878;29;20238;-83
2022/11/20 14:00:06;;;;;;;10.07;9.13;;;;;;;;;;4951631;28;20234;-85
2022/11/20 14:02:36;;;;;;;9.90;9.00;;;;;;;;;;4952295;28;20223;-81
2022/11/20 14:05:06;;;;;;;10.40;9.50;;;;;;;;;;4969216;28;21943;-82
2022/11/20 14:07:40;;;;;;;10.87;9.83;;;;;;;;;;4941654;29;20230;-82
2022/11/20 14:10:18;;;;;;;9.90;9.00;;;;;;;;;;4923517;28;20278;-80
2022/11/20 14:12:47;;;;;;;9.10;8.27;;;;;;;;;;4954815;28;20215;-82
2022/11/20 14:15:28;;;;;;;10.47;9.07;;;;;;;;;;4937802;28;20219;-85
2022/11/20 14:17:56;;;;;;;9.37;8.40;;;;;;;;;;4941545;29;20235;-81
2022/11/20 14:20:26;;;;;;;9.70;8.70;;;;;;;;;;4944857;28;20300;-84
2022/11/20 14:22:57;;;;;;;10.27;9.27;;;;;;;;;;4940149;28;20242;-83
2022/11/20 14:25:30;;;;;;;12.37;11.17;;;;;;;;;;4953060;28;20248;-82
2022/11/20 14:27:57;;;;;;;13.00;11.77;;;;;;;;;;4957205;28;20306;-82
2022/11/20 14:30:42;;;;;;;10.30;9.40;;;;;;;;;;4924911;29;20224;-82
2022/11/20 14:33:10;;;;;;;10.07;9.17;;;;;;;;;;4951139;28;20223;-82
2022/11/20 14:35:39;;;;;;;11.17;10.13;;;;;;;;;;4937857;28;20235;-79
2022/11/20 14:38:11;;;;;;;17.57;15.97;;;;;;;;;;4952052;28;20685;-81
2022/11/20 14:40:42;;;;;;;12.63;11.33;;;;;;;;;;4920792;29;20247;-81
2022/11/20 14:43:24;;;;;;;9.33;8.53;;;;;;;;;;4923449;28;20307;-82
2022/11/20 14:45:58;;;;;;;9.07;8.27;;;;;;;;;;4957249;28;20234;-82
2022/11/20 14:48:27;;;;;;;9.70;8.80;;;;;;;;;;4957831;28;20238;-79
2022/11/20 14:50:53;;;;;;;9.17;8.37;;;;;;;;;;4943562;29;20227;-81
2022/11/20 14:53:22;;;;;;;10.27;9.30;;;;;;;;;;4955074;28;20222;-79
2022/11/20 14:55:54;;;;;;;9.70;8.80;;;;;;;;;;4949967;28;20223;-80
2022/11/20 14:58:21;;;;;;;10.50;9.50;;;;;;;;;;4943486;28;20259;-81
2022/11/20 15:00:55;;;;;;;12.20;11.00;;;;;;;;;;4948220;28;20243;-80
2022/11/20 15:03:23;;;;;;;10.63;9.37;;;;;;;;;;4951496;28;20238;-81
2022/11/20 15:05:49;;;;;;;11.40;10.40;;;;;;;;;;4924952;29;20259;-82